sensor_id;sensor_type;location;lat;lon;timestamp;temperature;humidity
24800;DHT22;12897;50.812;4.430;2022-10-29T00:01:42;17.50;99.90
24800;DHT22;12897;50.812;4.430;2022-10-29T00:04:09;17.50;99.90
24800;DHT22;12897;50.812;4.430;2022-10-29T00:06:43;17.50;99.90
24800;DHT22;12897;50.812;4.430;2022-10-29T00:09:09;17.40;99.90
24800;DHT22;12897;50.812;4.430;2022-10-29T00:11:38;17.20;99.90
24800;DHT22;12897;50.812;4.430;2022-10-29T00:14:08;17.20;99.90
24800;DHT22;12897;50.812;4.430;2022-10-29T00:16:40;17.20;99.90
24800;DHT22;12897;50.812;4.430;2022-10-29T00:19:06;17.20;99.90
24800;DHT22;12897;50.812;4.430;2022-10-29T00:21:35;17.20;99.90
24800;DHT22;12897;50.812;4.430;2022-10-29T00:24:08;17.20;99.90
24800;DHT22;12897;50.812;4.430;2022-10-29T00:26:36;17.20;99.90
24800;DHT22;12897;50.812;4.430;2022-10-29T00:29:05;17.20;99.90
24800;DHT22;12897;50.812;4.430;2022-10-29T00:31:34;17.10;99.90
24800;DHT22;12897;50.812;4.430;2022-10-29T00:34:03;17.10;99.90
24800;DHT22;12897;50.812;4.430;2022-10-29T00:36:32;17.00;99.90
24800;DHT22;12897;50.812;4.430;2022-10-29T00:39:00;17.00;99.90
24800;DHT22;12897;50.812;4.430;2022-10-29T00:41:34;16.90;99.90
24800;DHT22;12897;50.812;4.430;2022-10-29T00:46:54;16.90;99.90
24800;DHT22;12897;50.812;4.430;2022-10-29T00:49:21;16.90;99.90
24800;DHT22;12897;50.812;4.430;2022-10-29T00:51:52;16.90;99.90
24800;DHT22;12897;50.812;4.430;2022-10-29T00:54:20;16.90;99.90
24800;DHT22;12897;50.812;4.430;2022-10-29T00:57:02;16.90;99.90
24800;DHT22;12897;50.812;4.430;2022-10-29T00:59:32;16.90;99.90
24800;DHT22;12897;50.812;4.430;2022-10-29T01:02:02;16.80;99.90
24800;DHT22;12897;50.812;4.430;2022-10-29T01:04:31;16.70;99.90
24800;DHT22;12897;50.812;4.430;2022-10-29T01:07:01;16.70;99.90
24800;DHT22;12897;50.812;4.430;2022-10-29T01:09:30;16.80;99.90
24800;DHT22;12897;50.812;4.430;2022-10-29T01:12:35;16.80;99.90
24800;DHT22;12897;50.812;4.430;2022-10-29T01:15:22;16.80;99.90
24800;DHT22;12897;50.812;4.430;2022-10-29T01:18:09;16.80;99.90
24800;DHT22;12897;50.812;4.430;2022-10-29T01:23:34;16.70;99.90
24800;DHT22;12897;50.812;4.430;2022-10-29T01:26:17;16.80;99.90
24800;DHT22;12897;50.812;4.430;2022-10-29T01:29:02;16.60;99.90
24800;DHT22;12897;50.812;4.430;2022-10-29T01:31:44;16.70;99.90
24800;DHT22;12897;50.812;4.430;2022-10-29T01:34:21;16.70;99.90
24800;DHT22;12897;50.812;4.430;2022-10-29T01:39:49;16.70;99.90
24800;DHT22;12897;50.812;4.430;2022-10-29T01:42:26;16.70;99.90
24800;DHT22;12897;50.812;4.430;2022-10-29T01:47:45;16.70;99.90
24800;DHT22;12897;50.812;4.430;2022-10-29T01:50:11;16.70;99.90
24800;DHT22;12897;50.812;4.430;2022-10-29T01:52:42;16.70;99.90
24800;DHT22;12897;50.812;4.430;2022-10-29T01:55:19;16.70;99.90
24800;DHT22;12897;50.812;4.430;2022-10-29T01:57:47;16.60;99.90
24800;DHT22;12897;50.812;4.430;2022-10-29T02:00:18;16.70;99.90
24800;DHT22;12897;50.812;4.430;2022-10-29T02:03:10;16.60;99.90
24800;DHT22;12897;50.812;4.430;2022-10-29T02:05:46;16.40;99.90
24800;DHT22;12897;50.812;4.430;2022-10-29T02:11:20;16.50;99.90
24800;DHT22;12897;50.812;4.430;2022-10-29T02:13:53;16.40;99.90
24800;DHT22;12897;50.812;4.430;2022-10-29T02:16:23;16.50;99.90
24800;DHT22;12897;50.812;4.430;2022-10-29T02:18:53;16.40;99.90
24800;DHT22;12897;50.812;4.430;2022-10-29T02:21:23;16.40;99.90
24800;DHT22;12897;50.812;4.430;2022-10-29T02:23:55;16.30;99.90
24800;DHT22;12897;50.812;4.430;2022-10-29T02:26:28;16.30;99.90
24800;DHT22;12897;50.812;4.430;2022-10-29T02:28:52;16.20;99.90
24800;DHT22;12897;50.812;4.430;2022-10-29T02:31:21;16.10;99.90
24800;DHT22;12897;50.812;4.430;2022-10-29T02:33:50;16.20;99.90
24800;DHT22;12897;50.812;4.430;2022-10-29T02:36:17;16.20;99.90
24800;DHT22;12897;50.812;4.430;2022-10-29T02:38:45;16.40;99.90
24800;DHT22;12897;50.812;4.430;2022-10-29T02:41:12;16.50;99.90
24800;DHT22;12897;50.812;4.430;2022-10-29T02:43:44;16.50;99.90
24800;DHT22;12897;50.812;4.430;2022-10-29T02:46:18;16.50;99.90
24800;DHT22;12897;50.812;4.430;2022-10-29T02:48:48;16.40;99.90
24800;DHT22;12897;50.812;4.430;2022-10-29T02:51:17;16.50;99.90
24800;DHT22;12897;50.812;4.430;2022-10-29T02:53:45;16.40;99.90
24800;DHT22;12897;50.812;4.430;2022-10-29T02:56:13;16.40;99.90
24800;DHT22;12897;50.812;4.430;2022-10-29T02:58:42;16.40;99.90
24800;DHT22;12897;50.812;4.430;2022-10-29T03:01:13;16.40;99.90
24800;DHT22;12897;50.812;4.430;2022-10-29T03:03:40;16.50;99.90
24800;DHT22;12897;50.812;4.430;2022-10-29T03:06:15;16.50;99.90
24800;DHT22;12897;50.812;4.430;2022-10-29T03:08:43;16.60;99.90
24800;DHT22;12897;50.812;4.430;2022-10-29T03:11:12;16.50;99.90
24800;DHT22;12897;50.812;4.430;2022-10-29T03:13:41;16.50;99.90
24800;DHT22;12897;50.812;4.430;2022-10-29T03:16:12;16.60;99.90
24800;DHT22;12897;50.812;4.430;2022-10-29T03:18:42;16.60;99.90
24800;DHT22;12897;50.812;4.430;2022-10-29T03:21:10;16.70;99.90
24800;DHT22;12897;50.812;4.430;2022-10-29T03:23:40;16.80;99.90
24800;DHT22;12897;50.812;4.430;2022-10-29T03:26:09;16.70;99.90
24800;DHT22;12897;50.812;4.430;2022-10-29T03:28:37;16.70;99.90
24800;DHT22;12897;50.812;4.430;2022-10-29T03:31:08;16.70;99.90
24800;DHT22;12897;50.812;4.430;2022-10-29T03:33:37;16.70;99.90
24800;DHT22;12897;50.812;4.430;2022-10-29T03:36:09;16.70;99.90
24800;DHT22;12897;50.812;4.430;2022-10-29T03:38:37;16.70;99.90
24800;DHT22;12897;50.812;4.430;2022-10-29T03:41:04;16.60;99.90
24800;DHT22;12897;50.812;4.430;2022-10-29T03:43:37;16.60;99.90
24800;DHT22;12897;50.812;4.430;2022-10-29T03:46:14;16.60;99.90
24800;DHT22;12897;50.812;4.430;2022-10-29T03:48:39;16.70;99.90
24800;DHT22;12897;50.812;4.430;2022-10-29T03:51:06;16.70;99.90
24800;DHT22;12897;50.812;4.430;2022-10-29T03:53:36;16.90;99.90
24800;DHT22;12897;50.812;4.430;2022-10-29T03:56:04;16.80;99.90
24800;DHT22;12897;50.812;4.430;2022-10-29T03:58:34;17.00;99.90
24800;DHT22;12897;50.812;4.430;2022-10-29T04:01:04;17.10;99.90
24800;DHT22;12897;50.812;4.430;2022-10-29T04:03:35;17.00;99.90
24800;DHT22;12897;50.812;4.430;2022-10-29T04:06:08;16.90;99.90
24800;DHT22;12897;50.812;4.430;2022-10-29T04:08:38;16.90;99.90
24800;DHT22;12897;50.812;4.430;2022-10-29T04:11:10;16.90;99.90
24800;DHT22;12897;50.812;4.430;2022-10-29T04:13:38;16.80;99.90
24800;DHT22;12897;50.812;4.430;2022-10-29T04:16:07;16.90;99.90
24800;DHT22;12897;50.812;4.430;2022-10-29T04:18:35;16.90;99.90
24800;DHT22;12897;50.812;4.430;2022-10-29T04:24:00;17.20;99.90
24800;DHT22;12897;50.812;4.430;2022-10-29T04:26:29;17.20;99.90
24800;DHT22;12897;50.812;4.430;2022-10-29T04:28:56;17.20;99.90
24800;DHT22;12897;50.812;4.430;2022-10-29T04:31:25;17.40;99.90
24800;DHT22;12897;50.812;4.430;2022-10-29T04:33:56;17.40;99.90
24800;DHT22;12897;50.812;4.430;2022-10-29T04:36:26;17.50;99.90
24800;DHT22;12897;50.812;4.430;2022-10-29T04:38:55;17.60;99.90
24800;DHT22;12897;50.812;4.430;2022-10-29T04:41:25;17.60;99.90
24800;DHT22;12897;50.812;4.430;2022-10-29T04:43:55;17.60;99.90
24800;DHT22;12897;50.812;4.430;2022-10-29T04:46:27;17.60;99.90
24800;DHT22;12897;50.812;4.430;2022-10-29T04:49:05;17.70;99.90
24800;DHT22;12897;50.812;4.430;2022-10-29T04:51:28;17.70;99.90
24800;DHT22;12897;50.812;4.430;2022-10-29T04:54:00;17.60;99.90
24800;DHT22;12897;50.812;4.430;2022-10-29T04:56:30;17.50;99.90
24800;DHT22;12897;50.812;4.430;2022-10-29T04:59:03;17.50;99.90
24800;DHT22;12897;50.812;4.430;2022-10-29T05:01:32;17.50;99.90
24800;DHT22;12897;50.812;4.430;2022-10-29T05:04:02;17.50;99.90
24800;DHT22;12897;50.812;4.430;2022-10-29T05:06:34;17.40;99.90
24800;DHT22;12897;50.812;4.430;2022-10-29T05:09:03;17.40;99.90
24800;DHT22;12897;50.812;4.430;2022-10-29T05:11:34;17.40;99.90
24800;DHT22;12897;50.812;4.430;2022-10-29T05:14:03;17.40;99.90
24800;DHT22;12897;50.812;4.430;2022-10-29T05:16:31;17.30;99.90
24800;DHT22;12897;50.812;4.430;2022-10-29T05:19:00;17.30;99.90
24800;DHT22;12897;50.812;4.430;2022-10-29T05:21:29;17.40;99.90
24800;DHT22;12897;50.812;4.430;2022-10-29T05:23:57;17.40;99.90
24800;DHT22;12897;50.812;4.430;2022-10-29T05:26:25;17.40;99.90
24800;DHT22;12897;50.812;4.430;2022-10-29T05:28:57;17.30;99.90
24800;DHT22;12897;50.812;4.430;2022-10-29T05:31:27;17.30;99.90
24800;DHT22;12897;50.812;4.430;2022-10-29T05:34:00;17.50;99.90
24800;DHT22;12897;50.812;4.430;2022-10-29T05:36:26;17.60;99.90
24800;DHT22;12897;50.812;4.430;2022-10-29T05:38:57;17.60;99.90
24800;DHT22;12897;50.812;4.430;2022-10-29T05:41:26;17.60;99.90
24800;DHT22;12897;50.812;4.430;2022-10-29T05:43:55;17.40;99.90
24800;DHT22;12897;50.812;4.430;2022-10-29T05:46:23;17.10;99.90
24800;DHT22;12897;50.812;4.430;2022-10-29T05:48:51;17.10;99.90
24800;DHT22;12897;50.812;4.430;2022-10-29T05:51:28;17.00;99.90
24800;DHT22;12897;50.812;4.430;2022-10-29T05:53:55;16.90;99.90
24800;DHT22;12897;50.812;4.430;2022-10-29T05:56:23;16.90;99.90
24800;DHT22;12897;50.812;4.430;2022-10-29T05:58:52;16.80;99.90
24800;DHT22;12897;50.812;4.430;2022-10-29T06:01:21;16.80;99.90
24800;DHT22;12897;50.812;4.430;2022-10-29T06:03:50;16.90;99.90
24800;DHT22;12897;50.812;4.430;2022-10-29T06:06:23;16.80;99.90
24800;DHT22;12897;50.812;4.430;2022-10-29T06:08:56;16.70;99.90
24800;DHT22;12897;50.812;4.430;2022-10-29T06:11:28;16.60;99.90
24800;DHT22;12897;50.812;4.430;2022-10-29T06:13:59;16.50;99.90
24800;DHT22;12897;50.812;4.430;2022-10-29T06:16:26;16.50;99.90
24800;DHT22;12897;50.812;4.430;2022-10-29T06:19:03;16.40;99.90
24800;DHT22;12897;50.812;4.430;2022-10-29T06:21:33;16.40;99.90
24800;DHT22;12897;50.812;4.430;2022-10-29T06:24:01;16.40;99.90
24800;DHT22;12897;50.812;4.430;2022-10-29T06:26:44;16.40;99.90
24800;DHT22;12897;50.812;4.430;2022-10-29T06:29:17;16.30;99.90
24800;DHT22;12897;50.812;4.430;2022-10-29T06:31:43;16.30;99.90
24800;DHT22;12897;50.812;4.430;2022-10-29T06:34:19;16.30;99.90
24800;DHT22;12897;50.812;4.430;2022-10-29T06:36:50;16.30;99.90
24800;DHT22;12897;50.812;4.430;2022-10-29T06:39:19;16.30;99.90
24800;DHT22;12897;50.812;4.430;2022-10-29T06:41:46;16.30;99.90
24800;DHT22;12897;50.812;4.430;2022-10-29T06:44:18;16.40;99.90
24800;DHT22;12897;50.812;4.430;2022-10-29T06:46:49;16.50;99.90
24800;DHT22;12897;50.812;4.430;2022-10-29T06:49:20;16.60;99.90
24800;DHT22;12897;50.812;4.430;2022-10-29T06:51:53;16.60;99.90
24800;DHT22;12897;50.812;4.430;2022-10-29T06:54:17;16.70;99.90
24800;DHT22;12897;50.812;4.430;2022-10-29T06:56:45;16.60;99.90
24800;DHT22;12897;50.812;4.430;2022-10-29T06:59:15;16.70;99.90
24800;DHT22;12897;50.812;4.430;2022-10-29T07:01:50;16.80;99.90
24800;DHT22;12897;50.812;4.430;2022-10-29T07:04:17;16.90;99.90
24800;DHT22;12897;50.812;4.430;2022-10-29T07:06:46;17.00;99.90
24800;DHT22;12897;50.812;4.430;2022-10-29T07:09:13;16.90;99.90
24800;DHT22;12897;50.812;4.430;2022-10-29T07:11:41;17.00;99.90
24800;DHT22;12897;50.812;4.430;2022-10-29T07:14:12;17.10;99.90
24800;DHT22;12897;50.812;4.430;2022-10-29T07:16:40;17.50;99.90
24800;DHT22;12897;50.812;4.430;2022-10-29T07:19:09;17.50;99.90
24800;DHT22;12897;50.812;4.430;2022-10-29T07:21:37;17.40;99.90
24800;DHT22;12897;50.812;4.430;2022-10-29T07:24:05;17.30;99.90
24800;DHT22;12897;50.812;4.430;2022-10-29T07:26:36;17.20;99.90
24800;DHT22;12897;50.812;4.430;2022-10-29T07:29:04;17.30;99.90
24800;DHT22;12897;50.812;4.430;2022-10-29T07:31:32;17.40;99.90
24800;DHT22;12897;50.812;4.430;2022-10-29T07:34:01;17.60;99.90
24800;DHT22;12897;50.812;4.430;2022-10-29T07:36:32;17.70;99.90
24800;DHT22;12897;50.812;4.430;2022-10-29T07:39:06;17.90;99.90
24800;DHT22;12897;50.812;4.430;2022-10-29T07:41:31;18.10;99.90
24800;DHT22;12897;50.812;4.430;2022-10-29T07:43:59;18.10;99.90
24800;DHT22;12897;50.812;4.430;2022-10-29T07:46:28;18.10;99.90
24800;DHT22;12897;50.812;4.430;2022-10-29T07:48:56;18.30;99.90
24800;DHT22;12897;50.812;4.430;2022-10-29T07:51:32;18.30;99.90
24800;DHT22;12897;50.812;4.430;2022-10-29T07:53:56;18.20;99.90
24800;DHT22;12897;50.812;4.430;2022-10-29T07:56:24;18.40;99.90
24800;DHT22;12897;50.812;4.430;2022-10-29T07:58:52;18.50;99.90
24800;DHT22;12897;50.812;4.430;2022-10-29T08:01:20;18.70;99.90
24800;DHT22;12897;50.812;4.430;2022-10-29T08:03:49;18.80;99.90
24800;DHT22;12897;50.812;4.430;2022-10-29T08:06:17;18.70;99.90
24800;DHT22;12897;50.812;4.430;2022-10-29T08:08:44;18.70;99.90
24800;DHT22;12897;50.812;4.430;2022-10-29T08:11:15;18.70;99.90
24800;DHT22;12897;50.812;4.430;2022-10-29T08:13:45;18.70;99.90
24800;DHT22;12897;50.812;4.430;2022-10-29T08:16:12;18.80;99.90
24800;DHT22;12897;50.812;4.430;2022-10-29T08:18:43;18.90;99.90
24800;DHT22;12897;50.812;4.430;2022-10-29T08:21:11;18.90;99.90
24800;DHT22;12897;50.812;4.430;2022-10-29T08:23:43;19.00;99.90
24800;DHT22;12897;50.812;4.430;2022-10-29T08:26:12;19.00;99.90
24800;DHT22;12897;50.812;4.430;2022-10-29T08:28:39;19.10;99.90
24800;DHT22;12897;50.812;4.430;2022-10-29T08:31:11;19.20;99.90
24800;DHT22;12897;50.812;4.430;2022-10-29T08:33:46;18.80;99.90
24800;DHT22;12897;50.812;4.430;2022-10-29T08:36:15;18.70;99.90
24800;DHT22;12897;50.812;4.430;2022-10-29T08:38:43;18.70;99.90
24800;DHT22;12897;50.812;4.430;2022-10-29T08:43:59;18.90;99.90
24800;DHT22;12897;50.812;4.430;2022-10-29T08:49:27;19.20;99.90
24800;DHT22;12897;50.812;4.430;2022-10-29T08:52:02;19.20;99.90
24800;DHT22;12897;50.812;4.430;2022-10-29T08:54:33;19.20;99.90
24800;DHT22;12897;50.812;4.430;2022-10-29T08:57:15;19.10;99.90
24800;DHT22;12897;50.812;4.430;2022-10-29T09:00:06;19.20;99.90
24800;DHT22;12897;50.812;4.430;2022-10-29T09:02:35;19.30;99.90
24800;DHT22;12897;50.812;4.430;2022-10-29T09:05:05;19.40;99.90
24800;DHT22;12897;50.812;4.430;2022-10-29T09:10:31;19.60;99.90
24800;DHT22;12897;50.812;4.430;2022-10-29T09:26:58;19.70;99.90
24800;DHT22;12897;50.812;4.430;2022-10-29T09:32:22;19.90;99.90
24800;DHT22;12897;50.812;4.430;2022-10-29T09:34:55;20.10;99.90
24800;DHT22;12897;50.812;4.430;2022-10-29T09:39:58;20.20;99.90
24800;DHT22;12897;50.812;4.430;2022-10-29T09:42:37;20.30;99.90
24800;DHT22;12897;50.812;4.430;2022-10-29T09:45:07;20.40;99.90
24800;DHT22;12897;50.812;4.430;2022-10-29T09:47:56;20.30;99.90
24800;DHT22;12897;50.812;4.430;2022-10-29T09:53:21;20.40;99.90
24800;DHT22;12897;50.812;4.430;2022-10-29T09:55:49;20.40;99.90
24800;DHT22;12897;50.812;4.430;2022-10-29T09:58:21;20.50;99.90
24800;DHT22;12897;50.812;4.430;2022-10-29T10:00:49;20.60;99.90
24800;DHT22;12897;50.812;4.430;2022-10-29T10:03:34;20.70;99.90
24800;DHT22;12897;50.812;4.430;2022-10-29T10:06:08;20.70;99.90
24800;DHT22;12897;50.812;4.430;2022-10-29T10:11:23;20.90;99.90
24800;DHT22;12897;50.812;4.430;2022-10-29T10:13:56;20.90;99.90
24800;DHT22;12897;50.812;4.430;2022-10-29T10:16:28;21.10;99.90
24800;DHT22;12897;50.812;4.430;2022-10-29T10:18:55;21.30;99.90
24800;DHT22;12897;50.812;4.430;2022-10-29T10:21:30;21.30;99.90
24800;DHT22;12897;50.812;4.430;2022-10-29T10:23:59;21.40;99.90
24800;DHT22;12897;50.812;4.430;2022-10-29T10:26:37;21.50;99.90
24800;DHT22;12897;50.812;4.430;2022-10-29T10:29:13;21.50;99.90
24800;DHT22;12897;50.812;4.430;2022-10-29T10:31:43;21.60;99.90
24800;DHT22;12897;50.812;4.430;2022-10-29T10:34:25;21.70;99.90
24800;DHT22;12897;50.812;4.430;2022-10-29T10:39:37;21.90;99.90
24800;DHT22;12897;50.812;4.430;2022-10-29T10:42:29;22.10;99.90
24800;DHT22;12897;50.812;4.430;2022-10-29T10:44:35;22.20;99.90
24800;DHT22;12897;50.812;4.430;2022-10-29T10:47:21;22.20;99.90
24800;DHT22;12897;50.812;4.430;2022-10-29T10:53:18;22.50;99.90
24800;DHT22;12897;50.812;4.430;2022-10-29T10:55:50;22.60;99.90
24800;DHT22;12897;50.812;4.430;2022-10-29T10:58:30;22.60;99.90
24800;DHT22;12897;50.812;4.430;2022-10-29T11:01:01;22.70;99.90
24800;DHT22;12897;50.812;4.430;2022-10-29T11:06:02;22.80;99.90
24800;DHT22;12897;50.812;4.430;2022-10-29T11:08:40;23.00;99.90
24800;DHT22;12897;50.812;4.430;2022-10-29T11:11:26;23.00;99.90
24800;DHT22;12897;50.812;4.430;2022-10-29T11:13:44;23.00;99.90
24800;DHT22;12897;50.812;4.430;2022-10-29T11:16:20;23.10;99.90
24800;DHT22;12897;50.812;4.430;2022-10-29T11:19:03;23.20;99.90
24800;DHT22;12897;50.812;4.430;2022-10-29T11:21:51;23.30;99.90
24800;DHT22;12897;50.812;4.430;2022-10-29T11:24:19;23.40;99.90
24800;DHT22;12897;50.812;4.430;2022-10-29T11:26:39;23.30;99.90
24800;DHT22;12897;50.812;4.430;2022-10-29T11:29:23;23.40;99.90
24800;DHT22;12897;50.812;4.430;2022-10-29T11:34:57;23.50;99.90
24800;DHT22;12897;50.812;4.430;2022-10-29T11:37:34;23.60;99.90
24800;DHT22;12897;50.812;4.430;2022-10-29T11:40:16;23.70;99.90
24800;DHT22;12897;50.812;4.430;2022-10-29T11:42:47;23.70;99.90
24800;DHT22;12897;50.812;4.430;2022-10-29T11:45:30;23.70;99.90
24800;DHT22;12897;50.812;4.430;2022-10-29T11:50:54;23.80;99.90
24800;DHT22;12897;50.812;4.430;2022-10-29T11:53:29;23.90;99.90
24800;DHT22;12897;50.812;4.430;2022-10-29T11:58:59;24.00;99.90
24800;DHT22;12897;50.812;4.430;2022-10-29T12:01:46;24.10;99.90
24800;DHT22;12897;50.812;4.430;2022-10-29T12:04:21;24.30;99.90
24800;DHT22;12897;50.812;4.430;2022-10-29T12:09:49;24.40;99.90
24800;DHT22;12897;50.812;4.430;2022-10-29T12:12:22;24.50;99.90
24800;DHT22;12897;50.812;4.430;2022-10-29T12:14:56;24.40;99.90
24800;DHT22;12897;50.812;4.430;2022-10-29T12:17:48;24.50;99.90
24800;DHT22;12897;50.812;4.430;2022-10-29T12:29:04;24.90;99.90
24800;DHT22;12897;50.812;4.430;2022-10-29T12:31:39;24.70;99.90
24800;DHT22;12897;50.812;4.430;2022-10-29T12:34:07;24.90;99.90
24800;DHT22;12897;50.812;4.430;2022-10-29T12:36:47;25.00;99.90
24800;DHT22;12897;50.812;4.430;2022-10-29T12:39:25;25.20;99.90
24800;DHT22;12897;50.812;4.430;2022-10-29T12:41:49;25.30;99.90
24800;DHT22;12897;50.812;4.430;2022-10-29T12:47:25;25.50;99.90
24800;DHT22;12897;50.812;4.430;2022-10-29T12:55:00;25.70;99.90
24800;DHT22;12897;50.812;4.430;2022-10-29T12:57:33;25.80;99.90
24800;DHT22;12897;50.812;4.430;2022-10-29T13:02:54;26.20;99.90
24800;DHT22;12897;50.812;4.430;2022-10-29T13:10:46;25.90;99.90
24800;DHT22;12897;50.812;4.430;2022-10-29T13:13:23;25.70;99.90
24800;DHT22;12897;50.812;4.430;2022-10-29T13:16:02;25.70;99.90
24800;DHT22;12897;50.812;4.430;2022-10-29T13:24:03;25.70;99.90
24800;DHT22;12897;50.812;4.430;2022-10-29T13:28:59;25.70;99.90
24800;DHT22;12897;50.812;4.430;2022-10-29T13:33:57;25.60;99.90
24800;DHT22;12897;50.812;4.430;2022-10-29T13:39:15;25.40;99.90
24800;DHT22;12897;50.812;4.430;2022-10-29T13:41:37;25.40;99.90
24800;DHT22;12897;50.812;4.430;2022-10-29T13:44:12;25.30;99.90
24800;DHT22;12897;50.812;4.430;2022-10-29T13:46:53;25.20;99.90
24800;DHT22;12897;50.812;4.430;2022-10-29T13:49:25;25.10;99.90
24800;DHT22;12897;50.812;4.430;2022-10-29T13:54:44;25.10;99.90
24800;DHT22;12897;50.812;4.430;2022-10-29T14:05:23;25.10;99.90
24800;DHT22;12897;50.812;4.430;2022-10-29T14:08:12;25.00;99.90
24800;DHT22;12897;50.812;4.430;2022-10-29T14:10:43;24.90;99.90
24800;DHT22;12897;50.812;4.430;2022-10-29T14:18:44;24.70;99.90
24800;DHT22;12897;50.812;4.430;2022-10-29T14:21:17;24.40;99.90
24800;DHT22;12897;50.812;4.430;2022-10-29T14:24:05;24.30;99.90
24800;DHT22;12897;50.812;4.430;2022-10-29T14:26:30;24.30;99.90
24800;DHT22;12897;50.812;4.430;2022-10-29T14:29:22;24.30;99.90
24800;DHT22;12897;50.812;4.430;2022-10-29T14:32:12;24.10;99.90
24800;DHT22;12897;50.812;4.430;2022-10-29T14:34:41;24.00;99.90
24800;DHT22;12897;50.812;4.430;2022-10-29T14:37:15;23.90;99.90
24800;DHT22;12897;50.812;4.430;2022-10-29T14:39:47;24.20;99.90
24800;DHT22;12897;50.812;4.430;2022-10-29T14:42:24;24.10;99.90
24800;DHT22;12897;50.812;4.430;2022-10-29T14:44:52;24.20;99.90
24800;DHT22;12897;50.812;4.430;2022-10-29T14:47:32;24.30;99.90
24800;DHT22;12897;50.812;4.430;2022-10-29T14:50:14;24.20;99.90
24800;DHT22;12897;50.812;4.430;2022-10-29T14:52:46;24.30;99.90
24800;DHT22;12897;50.812;4.430;2022-10-29T14:55:27;24.40;99.90
24800;DHT22;12897;50.812;4.430;2022-10-29T15:01:15;23.90;99.90
24800;DHT22;12897;50.812;4.430;2022-10-29T15:03:25;24.00;99.90
24800;DHT22;12897;50.812;4.430;2022-10-29T15:06:07;23.80;99.90
24800;DHT22;12897;50.812;4.430;2022-10-29T15:08:28;23.70;99.90
24800;DHT22;12897;50.812;4.430;2022-10-29T15:10:56;23.70;99.90
24800;DHT22;12897;50.812;4.430;2022-10-29T15:16:17;23.80;99.90
24800;DHT22;12897;50.812;4.430;2022-10-29T15:18:49;23.80;99.90
24800;DHT22;12897;50.812;4.430;2022-10-29T15:21:31;23.80;99.90
24800;DHT22;12897;50.812;4.430;2022-10-29T15:23:59;23.80;99.90
24800;DHT22;12897;50.812;4.430;2022-10-29T15:26:29;23.70;99.90
24800;DHT22;12897;50.812;4.430;2022-10-29T15:28:58;23.40;99.90
24800;DHT22;12897;50.812;4.430;2022-10-29T15:31:33;23.30;99.90
24800;DHT22;12897;50.812;4.430;2022-10-29T15:34:09;23.40;99.90
24800;DHT22;12897;50.812;4.430;2022-10-29T15:36:46;23.30;99.90
24800;DHT22;12897;50.812;4.430;2022-10-29T15:39:27;23.30;99.90
24800;DHT22;12897;50.812;4.430;2022-10-29T15:41:58;23.30;99.90
24800;DHT22;12897;50.812;4.430;2022-10-29T15:44:32;23.30;99.90
24800;DHT22;12897;50.812;4.430;2022-10-29T15:47:19;23.30;99.90
24800;DHT22;12897;50.812;4.430;2022-10-29T15:49:47;23.20;99.90
24800;DHT22;12897;50.812;4.430;2022-10-29T15:52:17;23.10;99.90
24800;DHT22;12897;50.812;4.430;2022-10-29T15:54:46;22.90;99.90
24800;DHT22;12897;50.812;4.430;2022-10-29T15:57:14;22.70;99.90
24800;DHT22;12897;50.812;4.430;2022-10-29T15:59:48;22.70;99.90
24800;DHT22;12897;50.812;4.430;2022-10-29T16:02:20;22.60;99.90
24800;DHT22;12897;50.812;4.430;2022-10-29T16:05:04;22.30;99.90
24800;DHT22;12897;50.812;4.430;2022-10-29T16:07:36;21.80;99.90
24800;DHT22;12897;50.812;4.430;2022-10-29T16:10:15;21.40;99.90
24800;DHT22;12897;50.812;4.430;2022-10-29T16:12:42;21.30;99.90
24800;DHT22;12897;50.812;4.430;2022-10-29T16:15:18;21.30;99.90
24800;DHT22;12897;50.812;4.430;2022-10-29T16:17:46;21.40;99.90
24800;DHT22;12897;50.812;4.430;2022-10-29T16:20:16;21.30;99.90
24800;DHT22;12897;50.812;4.430;2022-10-29T16:22:45;21.10;99.90
24800;DHT22;12897;50.812;4.430;2022-10-29T16:25:26;20.90;99.90
24800;DHT22;12897;50.812;4.430;2022-10-29T16:27:56;20.90;99.90
24800;DHT22;12897;50.812;4.430;2022-10-29T16:30:29;20.90;99.90
24800;DHT22;12897;50.812;4.430;2022-10-29T16:32:57;20.90;99.90
24800;DHT22;12897;50.812;4.430;2022-10-29T16:35:27;20.90;99.90
24800;DHT22;12897;50.812;4.430;2022-10-29T16:37:56;20.70;99.90
24800;DHT22;12897;50.812;4.430;2022-10-29T16:40:31;20.40;99.90
24800;DHT22;12897;50.812;4.430;2022-10-29T16:42:56;20.30;99.90
24800;DHT22;12897;50.812;4.430;2022-10-29T16:45:26;20.30;99.90
24800;DHT22;12897;50.812;4.430;2022-10-29T16:47:57;20.20;99.90
24800;DHT22;12897;50.812;4.430;2022-10-29T16:50:26;20.20;99.90
24800;DHT22;12897;50.812;4.430;2022-10-29T16:52:59;20.30;99.90
24800;DHT22;12897;50.812;4.430;2022-10-29T16:55:28;20.60;99.90
24800;DHT22;12897;50.812;4.430;2022-10-29T16:57:57;20.70;99.90
24800;DHT22;12897;50.812;4.430;2022-10-29T17:00:25;20.90;99.90
24800;DHT22;12897;50.812;4.430;2022-10-29T17:02:52;20.90;99.90
24800;DHT22;12897;50.812;4.430;2022-10-29T17:05:20;20.70;99.90
24800;DHT22;12897;50.812;4.430;2022-10-29T17:07:47;20.60;99.90
24800;DHT22;12897;50.812;4.430;2022-10-29T17:10:16;20.60;99.90
24800;DHT22;12897;50.812;4.430;2022-10-29T17:12:43;20.50;99.90
24800;DHT22;12897;50.812;4.430;2022-10-29T17:15:11;20.40;99.90
24800;DHT22;12897;50.812;4.430;2022-10-29T17:17:38;20.20;99.90
24800;DHT22;12897;50.812;4.430;2022-10-29T17:20:07;19.90;99.90
24800;DHT22;12897;50.812;4.430;2022-10-29T17:22:35;19.80;99.90
24800;DHT22;12897;50.812;4.430;2022-10-29T17:25:02;19.70;99.90
24800;DHT22;12897;50.812;4.430;2022-10-29T17:27:31;19.70;99.90
24800;DHT22;12897;50.812;4.430;2022-10-29T17:29:59;19.60;99.90
24800;DHT22;12897;50.812;4.430;2022-10-29T17:32:28;19.80;99.90
24800;DHT22;12897;50.812;4.430;2022-10-29T17:34:59;20.00;99.90
24800;DHT22;12897;50.812;4.430;2022-10-29T17:37:31;20.00;99.90
24800;DHT22;12897;50.812;4.430;2022-10-29T17:40:04;20.00;99.90
24800;DHT22;12897;50.812;4.430;2022-10-29T17:42:37;20.10;99.90
24800;DHT22;12897;50.812;4.430;2022-10-29T17:45:05;20.10;99.90
24800;DHT22;12897;50.812;4.430;2022-10-29T17:47:36;20.00;99.90
24800;DHT22;12897;50.812;4.430;2022-10-29T17:50:03;20.20;99.90
24800;DHT22;12897;50.812;4.430;2022-10-29T17:52:31;20.30;99.90
24800;DHT22;12897;50.812;4.430;2022-10-29T17:54:58;20.40;99.90
24800;DHT22;12897;50.812;4.430;2022-10-29T17:57:26;20.40;99.90
24800;DHT22;12897;50.812;4.430;2022-10-29T17:59:55;20.40;99.90
24800;DHT22;12897;50.812;4.430;2022-10-29T18:02:23;20.30;99.90
24800;DHT22;12897;50.812;4.430;2022-10-29T18:04:50;20.20;99.90
24800;DHT22;12897;50.812;4.430;2022-10-29T18:07:18;20.30;99.90
24800;DHT22;12897;50.812;4.430;2022-10-29T18:09:47;20.60;99.90